sensor_id;sensor_type;location;lat;lon;timestamp;temperature;humidity
69533;DHT22;56729;52.036;5.332;2023-02-07T00:00:42;1.90;99.90
69533;DHT22;56729;52.036;5.332;2023-02-07T00:01:44;1.90;99.90
69533;DHT22;56729;52.036;5.332;2023-02-07T00:02:47;1.80;99.90
69533;DHT22;56729;52.036;5.332;2023-02-07T00:03:49;1.80;99.90
69533;DHT22;56729;52.036;5.332;2023-02-07T00:04:52;1.80;99.90
69533;DHT22;56729;52.036;5.332;2023-02-07T00:05:54;1.80;99.90
69533;DHT22;56729;52.036;5.332;2023-02-07T00:06:56;1.80;99.90
69533;DHT22;56729;52.036;5.332;2023-02-07T00:07:57;1.70;99.90
69533;DHT22;56729;52.036;5.332;2023-02-07T00:09:01;1.70;99.90
69533;DHT22;56729;52.036;5.332;2023-02-07T00:10:05;1.70;99.90
69533;DHT22;56729;52.036;5.332;2023-02-07T00:11:09;1.70;99.90
69533;DHT22;56729;52.036;5.332;2023-02-07T00:12:11;1.60;99.90
69533;DHT22;56729;52.036;5.332;2023-02-07T00:13:13;1.60;99.90
69533;DHT22;56729;52.036;5.332;2023-02-07T00:14:15;1.60;99.90
69533;DHT22;56729;52.036;5.332;2023-02-07T00:15:17;1.60;99.90
69533;DHT22;56729;52.036;5.332;2023-02-07T00:16:20;1.60;99.90
69533;DHT22;56729;52.036;5.332;2023-02-07T00:17:22;1.60;99.90
69533;DHT22;56729;52.036;5.332;2023-02-07T00:18:25;1.60;99.90
69533;DHT22;56729;52.036;5.332;2023-02-07T00:19:27;1.50;99.90
69533;DHT22;56729;52.036;5.332;2023-02-07T00:20:29;1.50;99.90
69533;DHT22;56729;52.036;5.332;2023-02-07T00:21:31;1.60;99.90
69533;DHT22;56729;52.036;5.332;2023-02-07T00:22:33;1.60;99.90
69533;DHT22;56729;52.036;5.332;2023-02-07T00:23:35;1.60;99.90
69533;DHT22;56729;52.036;5.332;2023-02-07T00:24:38;1.60;99.90
69533;DHT22;56729;52.036;5.332;2023-02-07T00:25:40;1.60;99.90
69533;DHT22;56729;52.036;5.332;2023-02-07T00:26:46;1.60;99.90
69533;DHT22;56729;52.036;5.332;2023-02-07T00:27:48;1.60;99.90
69533;DHT22;56729;52.036;5.332;2023-02-07T00:28:51;1.60;99.90
69533;DHT22;56729;52.036;5.332;2023-02-07T00:29:54;1.60;99.90
69533;DHT22;56729;52.036;5.332;2023-02-07T00:31:07;1.60;99.90
69533;DHT22;56729;52.036;5.332;2023-02-07T00:32:09;1.60;99.90
69533;DHT22;56729;52.036;5.332;2023-02-07T00:33:11;1.60;99.90
69533;DHT22;56729;52.036;5.332;2023-02-07T00:34:14;1.60;99.90
69533;DHT22;56729;52.036;5.332;2023-02-07T00:35:16;1.60;99.90
69533;DHT22;56729;52.036;5.332;2023-02-07T00:36:21;1.60;99.90
69533;DHT22;56729;52.036;5.332;2023-02-07T00:37:23;1.60;99.90
69533;DHT22;56729;52.036;5.332;2023-02-07T00:38:26;1.60;99.90
69533;DHT22;56729;52.036;5.332;2023-02-07T00:39:28;1.60;99.90
69533;DHT22;56729;52.036;5.332;2023-02-07T00:40:31;1.60;99.90
69533;DHT22;56729;52.036;5.332;2023-02-07T00:41:33;1.60;99.90
69533;DHT22;56729;52.036;5.332;2023-02-07T00:42:34;1.60;99.90
69533;DHT22;56729;52.036;5.332;2023-02-07T00:43:37;1.60;99.90
69533;DHT22;56729;52.036;5.332;2023-02-07T00:44:39;1.60;99.90
69533;DHT22;56729;52.036;5.332;2023-02-07T00:45:41;1.60;99.90
69533;DHT22;56729;52.036;5.332;2023-02-07T00:46:43;1.60;99.90
69533;DHT22;56729;52.036;5.332;2023-02-07T00:47:45;1.60;99.90
69533;DHT22;56729;52.036;5.332;2023-02-07T00:48:46;1.50;99.90
69533;DHT22;56729;52.036;5.332;2023-02-07T00:49:48;1.50;99.90
69533;DHT22;56729;52.036;5.332;2023-02-07T00:50:50;1.50;99.90
69533;DHT22;56729;52.036;5.332;2023-02-07T00:51:52;1.50;99.90
69533;DHT22;56729;52.036;5.332;2023-02-07T00:52:54;1.50;99.90
69533;DHT22;56729;52.036;5.332;2023-02-07T00:53:57;1.50;99.90
69533;DHT22;56729;52.036;5.332;2023-02-07T00:54:59;1.50;99.90
69533;DHT22;56729;52.036;5.332;2023-02-07T00:56:01;1.50;99.90
69533;DHT22;56729;52.036;5.332;2023-02-07T00:57:04;1.50;99.90
69533;DHT22;56729;52.036;5.332;2023-02-07T00:58:06;1.50;99.90
69533;DHT22;56729;52.036;5.332;2023-02-07T00:59:08;1.50;99.90
69533;DHT22;56729;52.036;5.332;2023-02-07T01:00:11;1.50;99.90
69533;DHT22;56729;52.036;5.332;2023-02-07T01:01:13;1.50;99.90
69533;DHT22;56729;52.036;5.332;2023-02-07T01:02:15;1.50;99.90
69533;DHT22;56729;52.036;5.332;2023-02-07T01:03:17;1.50;99.90
69533;DHT22;56729;52.036;5.332;2023-02-07T01:04:19;1.40;99.90
69533;DHT22;56729;52.036;5.332;2023-02-07T01:05:22;1.40;99.90
69533;DHT22;56729;52.036;5.332;2023-02-07T01:06:24;1.40;99.90
69533;DHT22;56729;52.036;5.332;2023-02-07T01:07:29;1.40;99.90
69533;DHT22;56729;52.036;5.332;2023-02-07T01:08:30;1.40;99.90
69533;DHT22;56729;52.036;5.332;2023-02-07T01:09:32;1.40;99.90
69533;DHT22;56729;52.036;5.332;2023-02-07T01:10:37;1.40;99.90
69533;DHT22;56729;52.036;5.332;2023-02-07T01:11:39;1.40;99.90
69533;DHT22;56729;52.036;5.332;2023-02-07T01:12:41;1.40;99.90
69533;DHT22;56729;52.036;5.332;2023-02-07T01:13:43;1.40;99.90
69533;DHT22;56729;52.036;5.332;2023-02-07T01:14:45;1.40;99.90
69533;DHT22;56729;52.036;5.332;2023-02-07T01:15:47;1.40;99.90
69533;DHT22;56729;52.036;5.332;2023-02-07T01:16:49;1.40;99.90
69533;DHT22;56729;52.036;5.332;2023-02-07T01:17:51;1.40;99.90
69533;DHT22;56729;52.036;5.332;2023-02-07T01:18:54;1.40;99.90
69533;DHT22;56729;52.036;5.332;2023-02-07T01:19:57;1.40;99.90
69533;DHT22;56729;52.036;5.332;2023-02-07T01:21:01;1.40;99.90
69533;DHT22;56729;52.036;5.332;2023-02-07T01:22:13;1.40;99.90
69533;DHT22;56729;52.036;5.332;2023-02-07T01:23:15;1.40;99.90
69533;DHT22;56729;52.036;5.332;2023-02-07T01:24:18;1.40;99.90
69533;DHT22;56729;52.036;5.332;2023-02-07T01:25:19;1.30;99.90
69533;DHT22;56729;52.036;5.332;2023-02-07T01:26:23;1.30;99.90
69533;DHT22;56729;52.036;5.332;2023-02-07T01:27:25;1.30;99.90
69533;DHT22;56729;52.036;5.332;2023-02-07T01:28:27;1.30;99.90
69533;DHT22;56729;52.036;5.332;2023-02-07T01:29:29;1.30;99.90
69533;DHT22;56729;52.036;5.332;2023-02-07T01:30:31;1.30;99.90
69533;DHT22;56729;52.036;5.332;2023-02-07T01:31:34;1.30;99.90
69533;DHT22;56729;52.036;5.332;2023-02-07T01:32:36;1.30;99.90
69533;DHT22;56729;52.036;5.332;2023-02-07T01:33:38;1.30;99.90
69533;DHT22;56729;52.036;5.332;2023-02-07T01:34:40;1.30;99.90
69533;DHT22;56729;52.036;5.332;2023-02-07T01:35:41;1.30;99.90
69533;DHT22;56729;52.036;5.332;2023-02-07T01:36:47;1.20;99.90
69533;DHT22;56729;52.036;5.332;2023-02-07T01:37:49;1.20;99.90
69533;DHT22;56729;52.036;5.332;2023-02-07T01:38:52;1.20;99.90
69533;DHT22;56729;52.036;5.332;2023-02-07T01:39:54;1.20;99.90
69533;DHT22;56729;52.036;5.332;2023-02-07T01:40:56;1.20;99.90
69533;DHT22;56729;52.036;5.332;2023-02-07T01:41:58;1.20;99.90
69533;DHT22;56729;52.036;5.332;2023-02-07T01:43:00;1.20;99.90
69533;DHT22;56729;52.036;5.332;2023-02-07T01:44:18;1.10;99.90
69533;DHT22;56729;52.036;5.332;2023-02-07T01:45:46;1.10;99.90
69533;DHT22;56729;52.036;5.332;2023-02-07T01:46:50;1.10;99.90
69533;DHT22;56729;52.036;5.332;2023-02-07T01:47:53;1.10;99.90
69533;DHT22;56729;52.036;5.332;2023-02-07T01:49:06;1.10;99.90
69533;DHT22;56729;52.036;5.332;2023-02-07T01:50:09;1.10;99.90
69533;DHT22;56729;52.036;5.332;2023-02-07T01:51:11;1.10;99.90
69533;DHT22;56729;52.036;5.332;2023-02-07T01:52:29;1.10;99.90
69533;DHT22;56729;52.036;5.332;2023-02-07T01:53:34;1.10;99.90
69533;DHT22;56729;52.036;5.332;2023-02-07T01:54:37;1.10;99.90
69533;DHT22;56729;52.036;5.332;2023-02-07T01:55:42;1.10;99.90
69533;DHT22;56729;52.036;5.332;2023-02-07T01:56:53;1.10;99.90
69533;DHT22;56729;52.036;5.332;2023-02-07T01:57:58;1.10;99.90
69533;DHT22;56729;52.036;5.332;2023-02-07T01:59:03;1.10;99.90
69533;DHT22;56729;52.036;5.332;2023-02-07T02:00:07;1.10;99.90
69533;DHT22;56729;52.036;5.332;2023-02-07T02:01:19;1.00;99.90
69533;DHT22;56729;52.036;5.332;2023-02-07T02:02:25;1.00;99.90
69533;DHT22;56729;52.036;5.332;2023-02-07T02:03:28;1.00;99.90
69533;DHT22;56729;52.036;5.332;2023-02-07T02:04:30;1.00;99.90
69533;DHT22;56729;52.036;5.332;2023-02-07T02:05:34;0.90;99.90
69533;DHT22;56729;52.036;5.332;2023-02-07T02:06:37;0.90;99.90
69533;DHT22;56729;52.036;5.332;2023-02-07T02:07:42;0.90;99.90
69533;DHT22;56729;52.036;5.332;2023-02-07T02:08:45;1.00;99.90
69533;DHT22;56729;52.036;5.332;2023-02-07T02:09:47;0.90;99.90
69533;DHT22;56729;52.036;5.332;2023-02-07T02:11:11;1.00;99.90
69533;DHT22;56729;52.036;5.332;2023-02-07T02:12:28;1.00;99.90
69533;DHT22;56729;52.036;5.332;2023-02-07T02:14:02;1.00;99.90
69533;DHT22;56729;52.036;5.332;2023-02-07T02:15:33;1.00;99.90
69533;DHT22;56729;52.036;5.332;2023-02-07T02:16:49;1.00;99.90
69533;DHT22;56729;52.036;5.332;2023-02-07T02:18:15;1.00;99.90
69533;DHT22;56729;52.036;5.332;2023-02-07T02:19:34;1.00;99.90
69533;DHT22;56729;52.036;5.332;2023-02-07T02:21:49;1.00;99.90
69533;DHT22;56729;52.036;5.332;2023-02-07T02:29:15;0.90;99.90
69533;DHT22;56729;52.036;5.332;2023-02-07T02:33:46;0.70;99.90
69533;DHT22;56729;52.036;5.332;2023-02-07T02:34:59;0.60;99.90
69533;DHT22;56729;52.036;5.332;2023-02-07T02:36:14;0.70;99.90
69533;DHT22;56729;52.036;5.332;2023-02-07T02:40:14;0.70;99.90
69533;DHT22;56729;52.036;5.332;2023-02-07T02:41:21;0.70;99.90
69533;DHT22;56729;52.036;5.332;2023-02-07T02:42:42;0.70;99.90
69533;DHT22;56729;52.036;5.332;2023-02-07T02:43:50;0.70;99.90
69533;DHT22;56729;52.036;5.332;2023-02-07T02:44:59;0.70;99.90
69533;DHT22;56729;52.036;5.332;2023-02-07T02:46:20;0.60;99.90
69533;DHT22;56729;52.036;5.332;2023-02-07T02:47:23;0.60;99.90
69533;DHT22;56729;52.036;5.332;2023-02-07T02:48:28;0.60;99.90
69533;DHT22;56729;52.036;5.332;2023-02-07T02:49:32;0.60;99.90
69533;DHT22;56729;52.036;5.332;2023-02-07T02:50:35;0.70;99.90
69533;DHT22;56729;52.036;5.332;2023-02-07T02:51:37;0.70;99.90
69533;DHT22;56729;52.036;5.332;2023-02-07T02:52:39;0.70;99.90
69533;DHT22;56729;52.036;5.332;2023-02-07T02:53:57;0.70;99.90
69533;DHT22;56729;52.036;5.332;2023-02-07T02:55:07;0.70;99.90
69533;DHT22;56729;52.036;5.332;2023-02-07T02:56:41;0.70;99.90
69533;DHT22;56729;52.036;5.332;2023-02-07T02:58:06;0.70;99.90
69533;DHT22;56729;52.036;5.332;2023-02-07T02:59:21;0.70;99.90
69533;DHT22;56729;52.036;5.332;2023-02-07T03:00:36;0.70;99.90
69533;DHT22;56729;52.036;5.332;2023-02-07T03:01:49;0.70;99.90
69533;DHT22;56729;52.036;5.332;2023-02-07T03:07:02;0.70;99.90
69533;DHT22;56729;52.036;5.332;2023-02-07T03:09:40;0.60;99.90
69533;DHT22;56729;52.036;5.332;2023-02-07T03:12:07;0.60;99.90
69533;DHT22;56729;52.036;5.332;2023-02-07T03:15:01;0.50;99.90
69533;DHT22;56729;52.036;5.332;2023-02-07T03:16:18;0.50;99.90
69533;DHT22;56729;52.036;5.332;2023-02-07T03:17:25;0.50;99.90
69533;DHT22;56729;52.036;5.332;2023-02-07T03:19:48;0.40;99.90
69533;DHT22;56729;52.036;5.332;2023-02-07T03:21:02;0.40;99.90
69533;DHT22;56729;52.036;5.332;2023-02-07T03:22:10;0.40;99.90
69533;DHT22;56729;52.036;5.332;2023-02-07T03:23:18;0.40;99.90
69533;DHT22;56729;52.036;5.332;2023-02-07T03:24:30;0.40;99.90
69533;DHT22;56729;52.036;5.332;2023-02-07T03:25:32;0.40;99.90
69533;DHT22;56729;52.036;5.332;2023-02-07T03:26:35;0.40;99.90
69533;DHT22;56729;52.036;5.332;2023-02-07T03:27:39;0.30;99.90
69533;DHT22;56729;52.036;5.332;2023-02-07T03:28:42;0.40;99.90
69533;DHT22;56729;52.036;5.332;2023-02-07T03:29:46;0.40;99.90
69533;DHT22;56729;52.036;5.332;2023-02-07T03:30:50;0.40;99.90
69533;DHT22;56729;52.036;5.332;2023-02-07T03:31:55;0.40;99.90
69533;DHT22;56729;52.036;5.332;2023-02-07T03:33:04;0.40;99.90
69533;DHT22;56729;52.036;5.332;2023-02-07T03:34:23;0.40;99.90
69533;DHT22;56729;52.036;5.332;2023-02-07T03:35:32;0.30;99.90
69533;DHT22;56729;52.036;5.332;2023-02-07T03:36:41;0.30;99.90
69533;DHT22;56729;52.036;5.332;2023-02-07T03:37:56;0.40;99.90
69533;DHT22;56729;52.036;5.332;2023-02-07T03:38:59;0.40;99.90
69533;DHT22;56729;52.036;5.332;2023-02-07T03:40:04;0.40;99.90
69533;DHT22;56729;52.036;5.332;2023-02-07T03:41:13;0.40;99.90
69533;DHT22;56729;52.036;5.332;2023-02-07T03:42:45;0.40;99.90
69533;DHT22;56729;52.036;5.332;2023-02-07T03:43:49;0.40;99.90
69533;DHT22;56729;52.036;5.332;2023-02-07T03:44:53;0.40;99.90
69533;DHT22;56729;52.036;5.332;2023-02-07T03:45:55;0.40;99.90
69533;DHT22;56729;52.036;5.332;2023-02-07T03:46:58;0.40;99.90
69533;DHT22;56729;52.036;5.332;2023-02-07T03:48:00;0.40;99.90
69533;DHT22;56729;52.036;5.332;2023-02-07T03:49:02;0.40;99.90
69533;DHT22;56729;52.036;5.332;2023-02-07T03:50:05;0.40;99.90
69533;DHT22;56729;52.036;5.332;2023-02-07T03:51:07;0.40;99.90
69533;DHT22;56729;52.036;5.332;2023-02-07T03:52:10;0.40;99.90
69533;DHT22;56729;52.036;5.332;2023-02-07T03:53:12;0.40;99.90
69533;DHT22;56729;52.036;5.332;2023-02-07T03:54:14;0.40;99.90
69533;DHT22;56729;52.036;5.332;2023-02-07T03:55:16;0.40;99.90
69533;DHT22;56729;52.036;5.332;2023-02-07T03:56:18;0.40;99.90
69533;DHT22;56729;52.036;5.332;2023-02-07T03:57:20;0.40;99.90
69533;DHT22;56729;52.036;5.332;2023-02-07T03:58:21;0.40;99.90
69533;DHT22;56729;52.036;5.332;2023-02-07T03:59:23;0.40;99.90
69533;DHT22;56729;52.036;5.332;2023-02-07T04:00:25;0.30;99.90
69533;DHT22;56729;52.036;5.332;2023-02-07T04:01:27;0.40;99.90
69533;DHT22;56729;52.036;5.332;2023-02-07T04:02:29;0.40;99.90
69533;DHT22;56729;52.036;5.332;2023-02-07T04:03:32;0.40;99.90
69533;DHT22;56729;52.036;5.332;2023-02-07T04:04:34;0.40;99.90
69533;DHT22;56729;52.036;5.332;2023-02-07T04:05:36;0.40;99.90
69533;DHT22;56729;52.036;5.332;2023-02-07T04:06:39;0.40;99.90
69533;DHT22;56729;52.036;5.332;2023-02-07T04:07:42;0.40;99.90
69533;DHT22;56729;52.036;5.332;2023-02-07T04:08:44;0.50;99.90
69533;DHT22;56729;52.036;5.332;2023-02-07T04:09:46;0.50;99.90
69533;DHT22;56729;52.036;5.332;2023-02-07T04:11:08;0.40;99.90
69533;DHT22;56729;52.036;5.332;2023-02-07T04:12:10;0.50;99.90
69533;DHT22;56729;52.036;5.332;2023-02-07T04:13:13;0.50;99.90
69533;DHT22;56729;52.036;5.332;2023-02-07T04:14:15;0.50;99.90
69533;DHT22;56729;52.036;5.332;2023-02-07T04:15:20;0.40;99.90
69533;DHT22;56729;52.036;5.332;2023-02-07T04:16:23;0.50;99.90
69533;DHT22;56729;52.036;5.332;2023-02-07T04:17:25;0.40;99.90
69533;DHT22;56729;52.036;5.332;2023-02-07T04:18:30;0.50;99.90
69533;DHT22;56729;52.036;5.332;2023-02-07T04:19:31;0.50;99.90
69533;DHT22;56729;52.036;5.332;2023-02-07T04:20:33;0.50;99.90
69533;DHT22;56729;52.036;5.332;2023-02-07T04:21:35;0.50;99.90
69533;DHT22;56729;52.036;5.332;2023-02-07T04:22:37;0.50;99.90
69533;DHT22;56729;52.036;5.332;2023-02-07T04:23:40;0.50;99.90
69533;DHT22;56729;52.036;5.332;2023-02-07T04:24:42;0.50;99.90
69533;DHT22;56729;52.036;5.332;2023-02-07T04:25:44;0.50;99.90
69533;DHT22;56729;52.036;5.332;2023-02-07T04:26:48;0.50;99.90
69533;DHT22;56729;52.036;5.332;2023-02-07T04:27:50;0.50;99.90
69533;DHT22;56729;52.036;5.332;2023-02-07T04:28:52;0.50;99.90
69533;DHT22;56729;52.036;5.332;2023-02-07T04:29:54;0.50;99.90
69533;DHT22;56729;52.036;5.332;2023-02-07T04:30:56;0.50;99.90
69533;DHT22;56729;52.036;5.332;2023-02-07T04:31:58;0.50;99.90
69533;DHT22;56729;52.036;5.332;2023-02-07T04:33:00;0.50;99.90
69533;DHT22;56729;52.036;5.332;2023-02-07T04:34:03;0.50;99.90
69533;DHT22;56729;52.036;5.332;2023-02-07T04:35:06;0.50;99.90
69533;DHT22;56729;52.036;5.332;2023-02-07T04:36:09;0.50;99.90
69533;DHT22;56729;52.036;5.332;2023-02-07T04:37:11;0.50;99.90
69533;DHT22;56729;52.036;5.332;2023-02-07T04:38:13;0.50;99.90
69533;DHT22;56729;52.036;5.332;2023-02-07T04:39:14;0.50;99.90
69533;DHT22;56729;52.036;5.332;2023-02-07T04:40:16;0.50;99.90
69533;DHT22;56729;52.036;5.332;2023-02-07T04:41:18;0.50;99.90
69533;DHT22;56729;52.036;5.332;2023-02-07T04:42:20;0.50;99.90
69533;DHT22;56729;52.036;5.332;2023-02-07T04:43:22;0.50;99.90
69533;DHT22;56729;52.036;5.332;2023-02-07T04:44:24;0.40;99.90
69533;DHT22;56729;52.036;5.332;2023-02-07T04:45:26;0.40;99.90
69533;DHT22;56729;52.036;5.332;2023-02-07T04:46:27;0.40;99.90
69533;DHT22;56729;52.036;5.332;2023-02-07T04:47:29;0.40;99.90
69533;DHT22;56729;52.036;5.332;2023-02-07T04:48:32;0.40;99.90
69533;DHT22;56729;52.036;5.332;2023-02-07T04:49:34;0.40;99.90
69533;DHT22;56729;52.036;5.332;2023-02-07T04:50:36;0.40;99.90
69533;DHT22;56729;52.036;5.332;2023-02-07T04:51:38;0.40;99.90
69533;DHT22;56729;52.036;5.332;2023-02-07T04:52:40;0.40;99.90
69533;DHT22;56729;52.036;5.332;2023-02-07T04:53:42;0.40;99.90
69533;DHT22;56729;52.036;5.332;2023-02-07T04:54:44;0.40;99.90
69533;DHT22;56729;52.036;5.332;2023-02-07T04:55:47;0.40;99.90
69533;DHT22;56729;52.036;5.332;2023-02-07T04:56:49;0.40;99.90
69533;DHT22;56729;52.036;5.332;2023-02-07T04:57:51;0.40;99.90
69533;DHT22;56729;52.036;5.332;2023-02-07T04:58:53;0.40;99.90
69533;DHT22;56729;52.036;5.332;2023-02-07T04:59:54;0.40;99.90
69533;DHT22;56729;52.036;5.332;2023-02-07T05:00:56;0.40;99.90
69533;DHT22;56729;52.036;5.332;2023-02-07T05:01:58;0.40;99.90
69533;DHT22;56729;52.036;5.332;2023-02-07T05:03:00;0.40;99.90
69533;DHT22;56729;52.036;5.332;2023-02-07T05:04:02;0.40;99.90
69533;DHT22;56729;52.036;5.332;2023-02-07T05:05:04;0.40;99.90
69533;DHT22;56729;52.036;5.332;2023-02-07T05:06:06;0.40;99.90
69533;DHT22;56729;52.036;5.332;2023-02-07T05:07:08;0.40;99.90
69533;DHT22;56729;52.036;5.332;2023-02-07T05:08:11;0.40;99.90
69533;DHT22;56729;52.036;5.332;2023-02-07T05:09:13;0.30;99.90
69533;DHT22;56729;52.036;5.332;2023-02-07T05:10:15;0.30;99.90
69533;DHT22;56729;52.036;5.332;2023-02-07T05:11:17;0.30;99.90
69533;DHT22;56729;52.036;5.332;2023-02-07T05:12:20;0.30;99.90
69533;DHT22;56729;52.036;5.332;2023-02-07T05:13:23;0.30;99.90
69533;DHT22;56729;52.036;5.332;2023-02-07T05:14:25;0.30;99.90
69533;DHT22;56729;52.036;5.332;2023-02-07T05:15:27;0.30;99.90
69533;DHT22;56729;52.036;5.332;2023-02-07T05:16:29;0.30;99.90
69533;DHT22;56729;52.036;5.332;2023-02-07T05:17:30;0.30;99.90
69533;DHT22;56729;52.036;5.332;2023-02-07T05:18:35;0.30;99.90
69533;DHT22;56729;52.036;5.332;2023-02-07T05:19:37;0.30;99.90
69533;DHT22;56729;52.036;5.332;2023-02-07T05:20:39;0.30;99.90
69533;DHT22;56729;52.036;5.332;2023-02-07T05:21:41;0.30;99.90
69533;DHT22;56729;52.036;5.332;2023-02-07T05:22:43;0.30;99.90
69533;DHT22;56729;52.036;5.332;2023-02-07T05:23:44;0.30;99.90
69533;DHT22;56729;52.036;5.332;2023-02-07T05:24:46;0.30;99.90
69533;DHT22;56729;52.036;5.332;2023-02-07T05:25:48;0.30;99.90
69533;DHT22;56729;52.036;5.332;2023-02-07T05:26:50;0.20;99.90
69533;DHT22;56729;52.036;5.332;2023-02-07T05:27:52;0.20;99.90
69533;DHT22;56729;52.036;5.332;2023-02-07T05:28:54;0.30;99.90
69533;DHT22;56729;52.036;5.332;2023-02-07T05:29:56;0.20;99.90
69533;DHT22;56729;52.036;5.332;2023-02-07T05:31:00;0.30;99.90
69533;DHT22;56729;52.036;5.332;2023-02-07T05:32:02;0.30;99.90
69533;DHT22;56729;52.036;5.332;2023-02-07T05:33:22;0.30;99.90
69533;DHT22;56729;52.036;5.332;2023-02-07T05:34:24;0.30;99.90
69533;DHT22;56729;52.036;5.332;2023-02-07T05:35:26;0.30;99.90
69533;DHT22;56729;52.036;5.332;2023-02-07T05:36:28;0.30;99.90
69533;DHT22;56729;52.036;5.332;2023-02-07T05:37:30;0.30;99.90
69533;DHT22;56729;52.036;5.332;2023-02-07T05:38:32;0.20;99.90
69533;DHT22;56729;52.036;5.332;2023-02-07T05:39:34;0.20;99.90
69533;DHT22;56729;52.036;5.332;2023-02-07T05:40:37;0.20;99.90
69533;DHT22;56729;52.036;5.332;2023-02-07T05:41:39;0.20;99.90
69533;DHT22;56729;52.036;5.332;2023-02-07T05:42:40;0.20;99.90
69533;DHT22;56729;52.036;5.332;2023-02-07T05:43:42;0.20;99.90
69533;DHT22;56729;52.036;5.332;2023-02-07T05:44:44;0.20;99.90
69533;DHT22;56729;52.036;5.332;2023-02-07T05:45:46;0.20;99.90
69533;DHT22;56729;52.036;5.332;2023-02-07T05:46:48;0.20;99.90
69533;DHT22;56729;52.036;5.332;2023-02-07T05:47:53;0.10;99.90
69533;DHT22;56729;52.036;5.332;2023-02-07T05:48:55;0.20;99.90
69533;DHT22;56729;52.036;5.332;2023-02-07T05:49:57;0.20;99.90
69533;DHT22;56729;52.036;5.332;2023-02-07T05:50:58;0.20;99.90
69533;DHT22;56729;52.036;5.332;2023-02-07T05:52:00;0.10;99.90
69533;DHT22;56729;52.036;5.332;2023-02-07T05:53:02;0.10;99.90
69533;DHT22;56729;52.036;5.332;2023-02-07T05:54:05;0.10;99.90
69533;DHT22;56729;52.036;5.332;2023-02-07T05:55:07;0.10;99.90
69533;DHT22;56729;52.036;5.332;2023-02-07T05:56:09;0.10;99.90
69533;DHT22;56729;52.036;5.332;2023-02-07T05:57:11;0.00;99.90
69533;DHT22;56729;52.036;5.332;2023-02-07T05:58:13;0.00;99.90
69533;DHT22;56729;52.036;5.332;2023-02-07T05:59:15;0.00;99.90
69533;DHT22;56729;52.036;5.332;2023-02-07T06:00:18;0.00;99.90
69533;DHT22;56729;52.036;5.332;2023-02-07T06:01:20;0.00;99.90
69533;DHT22;56729;52.036;5.332;2023-02-07T06:02:22;0.00;99.90
69533;DHT22;56729;52.036;5.332;2023-02-07T06:03:24;0.00;99.90
69533;DHT22;56729;52.036;5.332;2023-02-07T06:04:27;-0.10;99.90
69533;DHT22;56729;52.036;5.332;2023-02-07T06:05:29;-0.10;99.90
69533;DHT22;56729;52.036;5.332;2023-02-07T06:06:32;-0.20;99.90
69533;DHT22;56729;52.036;5.332;2023-02-07T06:07:34;-0.20;99.90
69533;DHT22;56729;52.036;5.332;2023-02-07T06:08:36;-0.30;99.90
69533;DHT22;56729;52.036;5.332;2023-02-07T06:09:38;-0.30;99.90
69533;DHT22;56729;52.036;5.332;2023-02-07T06:10:39;-0.30;99.90
69533;DHT22;56729;52.036;5.332;2023-02-07T06:11:41;-0.40;99.90
69533;DHT22;56729;52.036;5.332;2023-02-07T06:12:43;-0.40;99.90
69533;DHT22;56729;52.036;5.332;2023-02-07T06:13:45;-0.40;99.90
69533;DHT22;56729;52.036;5.332;2023-02-07T06:14:47;-0.40;99.90
69533;DHT22;56729;52.036;5.332;2023-02-07T06:15:49;-0.40;99.90
69533;DHT22;56729;52.036;5.332;2023-02-07T06:16:51;-0.40;99.90
69533;DHT22;56729;52.036;5.332;2023-02-07T06:17:52;-0.40;99.90
69533;DHT22;56729;52.036;5.332;2023-02-07T06:18:54;-0.40;99.90
69533;DHT22;56729;52.036;5.332;2023-02-07T06:19:56;-0.40;99.90
69533;DHT22;56729;52.036;5.332;2023-02-07T06:20:58;-0.40;99.90
69533;DHT22;56729;52.036;5.332;2023-02-07T06:22:00;-0.40;99.90
69533;DHT22;56729;52.036;5.332;2023-02-07T06:23:02;-0.40;99.90
69533;DHT22;56729;52.036;5.332;2023-02-07T06:24:04;-0.40;99.90
69533;DHT22;56729;52.036;5.332;2023-02-07T06:25:06;-0.30;99.90
69533;DHT22;56729;52.036;5.332;2023-02-07T06:26:12;-0.40;99.90
69533;DHT22;56729;52.036;5.332;2023-02-07T06:27:14;-0.40;99.90
69533;DHT22;56729;52.036;5.332;2023-02-07T06:28:16;-0.40;99.90
69533;DHT22;56729;52.036;5.332;2023-02-07T06:29:18;-0.40;99.90
69533;DHT22;56729;52.036;5.332;2023-02-07T06:30:20;-0.40;99.90
69533;DHT22;56729;52.036;5.332;2023-02-07T06:31:23;-0.40;99.90
69533;DHT22;56729;52.036;5.332;2023-02-07T06:32:25;-0.40;99.90
69533;DHT22;56729;52.036;5.332;2023-02-07T06:33:27;-0.40;99.90
69533;DHT22;56729;52.036;5.332;2023-02-07T06:34:28;-0.40;99.90
69533;DHT22;56729;52.036;5.332;2023-02-07T06:35:30;-0.40;99.90
69533;DHT22;56729;52.036;5.332;2023-02-07T06:36:33;-0.40;99.90
69533;DHT22;56729;52.036;5.332;2023-02-07T06:37:35;-0.40;99.90
69533;DHT22;56729;52.036;5.332;2023-02-07T06:38:36;-0.40;99.90
69533;DHT22;56729;52.036;5.332;2023-02-07T06:39:38;-0.50;99.90
69533;DHT22;56729;52.036;5.332;2023-02-07T06:40:40;-0.40;99.90
69533;DHT22;56729;52.036;5.332;2023-02-07T06:41:42;-0.40;99.90
69533;DHT22;56729;52.036;5.332;2023-02-07T06:42:44;-0.40;99.90
69533;DHT22;56729;52.036;5.332;2023-02-07T06:43:46;-0.40;99.90
69533;DHT22;56729;52.036;5.332;2023-02-07T06:44:48;-0.40;99.90
69533;DHT22;56729;52.036;5.332;2023-02-07T06:45:50;-0.40;99.90
69533;DHT22;56729;52.036;5.332;2023-02-07T06:46:53;-0.40;99.90
69533;DHT22;56729;52.036;5.332;2023-02-07T06:47:54;-0.40;99.90
69533;DHT22;56729;52.036;5.332;2023-02-07T06:48:56;-0.50;99.90
69533;DHT22;56729;52.036;5.332;2023-02-07T06:49:58;-0.50;99.90
69533;DHT22;56729;52.036;5.332;2023-02-07T06:51:00;-0.50;99.90
69533;DHT22;56729;52.036;5.332;2023-02-07T06:52:02;-0.50;99.90
69533;DHT22;56729;52.036;5.332;2023-02-07T06:53:04;-0.50;99.90
69533;DHT22;56729;52.036;5.332;2023-02-07T06:54:06;-0.50;99.90
69533;DHT22;56729;52.036;5.332;2023-02-07T06:55:10;-0.50;99.90
69533;DHT22;56729;52.036;5.332;2023-02-07T06:56:12;-0.50;99.90
69533;DHT22;56729;52.036;5.332;2023-02-07T06:57:14;-0.50;99.90
69533;DHT22;56729;52.036;5.332;2023-02-07T06:58:16;-0.50;99.90
69533;DHT22;56729;52.036;5.332;2023-02-07T06:59:18;-0.40;99.90
69533;DHT22;56729;52.036;5.332;2023-02-07T07:00:21;-0.40;99.90
69533;DHT22;56729;52.036;5.332;2023-02-07T07:01:23;-0.40;99.90
69533;DHT22;56729;52.036;5.332;2023-02-07T07:02:25;-0.50;99.90
69533;DHT22;56729;52.036;5.332;2023-02-07T07:03:27;-0.40;99.90
69533;DHT22;56729;52.036;5.332;2023-02-07T07:04:30;-0.40;99.90
69533;DHT22;56729;52.036;5.332;2023-02-07T07:05:32;-0.40;99.90
69533;DHT22;56729;52.036;5.332;2023-02-07T07:06:34;-0.50;99.90
69533;DHT22;56729;52.036;5.332;2023-02-07T07:07:36;-0.40;99.90
69533;DHT22;56729;52.036;5.332;2023-02-07T07:08:38;-0.50;99.90
69533;DHT22;56729;52.036;5.332;2023-02-07T07:09:39;-0.50;99.90
69533;DHT22;56729;52.036;5.332;2023-02-07T07:10:41;-0.50;99.90
69533;DHT22;56729;52.036;5.332;2023-02-07T07:11:43;-0.50;99.90
69533;DHT22;56729;52.036;5.332;2023-02-07T07:12:45;-0.50;99.90
69533;DHT22;56729;52.036;5.332;2023-02-07T07:13:48;-0.50;99.90